Blackwell, OK

4:34 AM CDT on March 29, 2017 (GMT -0500)
Blackwell

Weather History for KBKN - November, 2012

Change the Weather History Date:

Saturday, November 3, 2012

  Actual Average (KPNC) Record (KPNC)
Temperature  
Mean Temperature 52 °F -  
Max Temperature 64 °F 57 °F 80 °F (2005)
Min Temperature 39 °F 39 °F 21 °F (1951)
Degree Days  
Heating Degree Days 14    
Growing Degree Days 2 (Base 50)    
Moisture  
Dew Point 33 °F    
Average Humidity 51    
Maximum Humidity 75    
Minimum Humidity 30    
Precipitation  
Precipitation 0.00 in - - ()
Sea Level Pressure  
Sea Level Pressure 30.12 in    
Wind  
Wind Speed 13 mph (North)    
Max Wind Speed 21 mph    
Max Gust Speed 28 mph    
Visibility 10 miles    
Events      
Averages and records for this station are not official NWS values.
T = Trace of Precipitation, MM = Missing Value Source: NWS Daily Summary

Daily Weather History Graph

Daily Weather History Graph

Search for Another Location

Airport or City:

Trip Planner

Search our weather history database for the weather conditions in past years. The results will help you decide how hot, cold, wet, or windy it might be!

Date:

Astronomy

Nov. 03, 2012 Rise Set
Actual Time 7:55 AM CDT 6:29 PM CDT
Civil Twilight 7:28 AM CDT 6:56 PM CDT
Nautical Twilight 6:57 AM CDT 7:27 PM CDT
Astronomical Twilight 6:27 AM CDT 7:57 PM CDT
Moon 10:14 PM CDT (11/3) 11:58 AM CDT (11/3)
Length of Visible Light 11h 28m
Length of Day
10h 34m
Waning Gibbous, 80% of the Moon is Illuminated
Nov 3
Waning Gibbous
Nov 6
Last Quarter
Nov 13
New
Nov 20
First Quarter
Nov 28
Full

Hourly Weather History & Observations

Time (CDT) Temp. Windchill Dew Point Humidity Pressure Visibility Wind Dir Wind Speed Gust Speed Precip Events Conditions
12:15 AM 55.4 °F - 39.2 °F 54% 29.95 in 10.0 mi NNW 16.1 mph - N/A   Mostly Cloudy
12:35 AM 55.4 °F - 39.2 °F 54% 29.96 in 10.0 mi NNW 17.3 mph 23.0 mph N/A   Mostly Cloudy
12:55 AM 53.6 °F - 39.2 °F 58% 29.96 in 10.0 mi NNW 15.0 mph - N/A   Partly Cloudy
1:15 AM 53.6 °F - 39.2 °F 58% 29.97 in 10.0 mi NNW 18.4 mph - N/A   Partly Cloudy
1:35 AM 53.6 °F - 37.4 °F 54% 29.98 in 10.0 mi NNW 17.3 mph - N/A   Clear
1:55 AM 51.8 °F - 37.4 °F 58% 29.98 in 10.0 mi NNW 20.7 mph 27.6 mph N/A   Clear
2:15 AM 50.0 °F - 35.6 °F 58% 29.99 in 10.0 mi North 18.4 mph - N/A   Clear
2:35 AM 50.0 °F - 35.6 °F 58% 30.00 in 10.0 mi NNW 17.3 mph - N/A   Clear
2:55 AM 50.0 °F - 35.6 °F 58% 30.01 in 10.0 mi NNW 17.3 mph 23.0 mph N/A   Partly Cloudy
3:15 AM 48.2 °F - 35.6 °F 62% 30.01 in 10.0 mi North 16.1 mph - N/A   Partly Cloudy
3:35 AM 48.2 °F - 33.8 °F 58% 30.02 in 10.0 mi NNW 13.8 mph - N/A   Partly Cloudy
3:55 AM 46.4 °F 41.5 °F 33.8 °F 62% 30.03 in 10.0 mi North 10.4 mph - N/A   Partly Cloudy
4:15 AM 46.4 °F 42.9 °F 33.8 °F 62% 30.05 in 10.0 mi North 6.9 mph - N/A   Mostly Cloudy
4:35 AM 44.6 °F 40.2 °F 32.0 °F 61% 30.05 in 10.0 mi NNW 8.1 mph - N/A   Mostly Cloudy
4:55 AM 42.8 °F 39.3 °F 32.0 °F 66% 30.06 in 10.0 mi NNW 5.8 mph - N/A   Mostly Cloudy
5:15 AM 42.8 °F 38.6 °F 32.0 °F 66% 30.08 in 10.0 mi NNW 6.9 mph - N/A   Scattered Clouds
5:35 AM 41.0 °F 35.8 °F 32.0 °F 70% 30.09 in 10.0 mi NNW 8.1 mph - N/A   Scattered Clouds
5:55 AM 41.0 °F 35.2 °F 32.0 °F 70% 30.10 in 10.0 mi NNW 9.2 mph - N/A   Partly Cloudy
6:15 AM 41.0 °F 35.8 °F 32.0 °F 70% 30.11 in 10.0 mi NNW 8.1 mph - N/A   Clear
6:35 AM 41.0 °F 35.8 °F 32.0 °F 70% 30.11 in 10.0 mi NNW 8.1 mph - N/A   Clear
6:55 AM 39.2 °F 33.6 °F 32.0 °F 75% 30.12 in 10.0 mi NNW 8.1 mph - N/A   Clear
7:15 AM 41.0 °F 35.8 °F 32.0 °F 70% 30.13 in 10.0 mi NNW 8.1 mph - N/A   Clear
7:35 AM 41.0 °F 35.2 °F 32.0 °F 70% 30.13 in 10.0 mi NNW 9.2 mph - N/A   Clear
7:55 AM 39.2 °F 34.2 °F 32.0 °F 75% 30.14 in 10.0 mi NNW 6.9 mph - N/A   Clear
8:15 AM 39.2 °F 33.0 °F 32.0 °F 75% 30.15 in 10.0 mi NNW 9.2 mph - N/A   Clear
8:35 AM 41.0 °F 36.4 °F 32.0 °F 70% 30.16 in 10.0 mi NNW 6.9 mph - N/A   Clear
8:55 AM 42.8 °F 37.0 °F 32.0 °F 66% 30.16 in 10.0 mi North 10.4 mph - N/A   Clear
9:15 AM 44.6 °F 37.8 °F 32.0 °F 61% 30.17 in 10.0 mi North 15.0 mph - N/A   Clear
9:35 AM 46.4 °F 40.4 °F 32.0 °F 57% 30.17 in 10.0 mi North 13.8 mph - N/A   Clear
9:55 AM 48.2 °F - 32.0 °F 54% 30.18 in 10.0 mi North 15.0 mph 23.0 mph N/A   Clear
10:15 AM 50.0 °F - 32.0 °F 50% 30.18 in 10.0 mi North 17.3 mph - N/A   Clear
10:35 AM 50.0 °F - 32.0 °F 50% 30.18 in 10.0 mi NNE 15.0 mph - N/A   Clear
10:55 AM 51.8 °F - 30.2 °F 44% 30.19 in 10.0 mi NNE 13.8 mph 24.2 mph N/A   Clear
11:15 AM 53.6 °F - 32.0 °F 44% 30.19 in 10.0 mi NNE 17.3 mph - N/A   Clear
11:35 AM 53.6 °F - 32.0 °F 44% 30.19 in 10.0 mi NNE 13.8 mph 19.6 mph N/A   Clear
11:55 AM 53.6 °F - 32.0 °F 44% 30.20 in 10.0 mi North 12.7 mph 18.4 mph N/A   Clear
12:15 PM 55.4 °F - 32.0 °F 41% 30.19 in 10.0 mi North 15.0 mph 19.6 mph N/A   Clear
12:35 PM 55.4 °F - 32.0 °F 41% 30.18 in 10.0 mi North 11.5 mph 18.4 mph N/A   Clear
12:55 PM 57.2 °F - 32.0 °F 38% 30.17 in 10.0 mi NNE 8.1 mph - N/A   Clear
1:15 PM 57.2 °F - 32.0 °F 38% 30.17 in 10.0 mi North 9.2 mph 16.1 mph N/A   Clear
1:35 PM 59.0 °F - 32.0 °F 36% 30.16 in 10.0 mi North 10.4 mph 16.1 mph N/A   Clear
1:55 PM 59.0 °F - 32.0 °F 36% 30.16 in 10.0 mi North 10.4 mph 17.3 mph N/A   Clear
2:15 PM 60.8 °F - 32.0 °F 34% 30.15 in 10.0 mi North 13.8 mph - N/A   Clear
2:35 PM 62.6 °F - 32.0 °F 32% 30.15 in 10.0 mi NNE 10.4 mph - N/A   Clear
2:55 PM 62.6 °F - 32.0 °F 32% 30.14 in 10.0 mi NNE 10.4 mph - N/A   Clear
3:15 PM 64.4 °F - 32.0 °F 30% 30.14 in 10.0 mi North 13.8 mph 24.2 mph N/A   Clear
3:35 PM 64.4 °F - 32.0 °F 30% 30.14 in 10.0 mi NNE 12.7 mph 21.9 mph N/A   Clear
3:55 PM 64.4 °F - 32.0 °F 30% 30.13 in 10.0 mi North 12.7 mph 18.4 mph N/A   Clear
4:15 PM 64.4 °F - 32.0 °F 30% 30.13 in 10.0 mi North 13.8 mph - N/A   Clear
4:35 PM 62.6 °F - 32.0 °F 32% 30.14 in 10.0 mi North 9.2 mph - N/A   Clear
4:55 PM 62.6 °F - 32.0 °F 32% 30.13 in 10.0 mi NNE 12.7 mph 16.1 mph N/A   Clear
5:15 PM 62.6 °F - 32.0 °F 32% 30.13 in 10.0 mi NNE 11.5 mph - N/A   Clear
5:35 PM 62.6 °F - 32.0 °F 32% 30.13 in 10.0 mi NNE 10.4 mph - N/A   Clear
5:55 PM 60.8 °F - 32.0 °F 34% 30.14 in 10.0 mi North 6.9 mph - N/A   Clear
6:15 PM 59.0 °F - 32.0 °F 36% 30.14 in 10.0 mi North 8.1 mph - N/A   Clear
6:35 PM 57.2 °F - 30.2 °F 36% 30.14 in 10.0 mi North 6.9 mph - N/A   Clear
6:55 PM 55.4 °F - 30.2 °F 38% 30.15 in 10.0 mi North 6.9 mph - N/A   Clear
7:15 PM 53.6 °F - 30.2 °F 41% 30.15 in 6.0 mi North 6.9 mph - N/A   Haze
7:35 PM 50.0 °F - 28.4 °F 43% 30.15 in 4.0 mi North 6.9 mph - N/A   Haze
7:55 PM 48.2 °F - 28.4 °F 46% 30.16 in 4.0 mi North 6.9 mph - N/A   Haze
8:15 PM 48.2 °F - 28.4 °F 46% 30.16 in 5.0 mi North 8.1 mph - N/A   Haze
8:35 PM 48.2 °F - 28.4 °F 46% 30.17 in 4.0 mi North 6.9 mph - N/A   Haze
8:55 PM 51.8 °F - 32.0 °F 47% 30.17 in 10.0 mi NNE 9.2 mph - N/A   Clear
9:15 PM 50.0 °F - 32.0 °F 50% 30.17 in 10.0 mi NNE 9.2 mph - N/A   Clear
9:55 PM 50.0 °F - 32.0 °F 50% 30.17 in 10.0 mi NNE 5.8 mph - N/A   Clear
10:15 PM 48.2 °F - 32.0 °F 54% 30.18 in 10.0 mi NNE 4.6 mph - N/A   Clear
10:35 PM 46.4 °F 43.5 °F 32.0 °F 57% 30.18 in 10.0 mi NNE 5.8 mph - N/A   Clear
10:55 PM 46.4 °F 42.9 °F 32.0 °F 57% 30.18 in 10.0 mi NNE 6.9 mph - N/A   Clear
11:15 PM 46.4 °F 43.5 °F 32.0 °F 57% 30.18 in 10.0 mi NNE 5.8 mph - N/A   Clear
11:35 PM 46.4 °F 43.5 °F 32.0 °F 57% 30.18 in 10.0 mi NNE 5.8 mph - N/A   Clear
11:55 PM 46.4 °F 44.3 °F 32.0 °F 57% 30.18 in 10.0 mi NNE 4.6 mph - N/A   Clear